sensor_id;sensor_type;location;lat;lon;timestamp;P1;durP1;ratioP1;P2;durP2;ratioP2
33644;SDS011;19986;48.190;16.366;2023-08-01T04:19:53;36.95;;;34.25;;
33644;SDS011;19986;48.190;16.366;2023-08-01T04:22:20;34.70;;;32.80;;
33644;SDS011;19986;48.190;16.366;2023-08-01T04:24:46;34.50;;;32.60;;
33644;SDS011;19986;48.190;16.366;2023-08-01T04:27:11;33.88;;;32.00;;
33644;SDS011;19986;48.190;16.366;2023-08-01T04:29:37;34.80;;;32.90;;
33644;SDS011;19986;48.190;16.366;2023-08-01T04:32:03;37.55;;;34.90;;
33644;SDS011;19986;48.190;16.366;2023-08-01T04:34:29;34.30;;;32.38;;
33644;SDS011;19986;48.190;16.366;2023-08-01T04:36:55;36.22;;;34.38;;
33644;SDS011;19986;48.190;16.366;2023-08-01T04:39:21;33.83;;;31.73;;
33644;SDS011;19986;48.190;16.366;2023-08-01T04:41:47;35.70;;;33.55;;
33644;SDS011;19986;48.190;16.366;2023-08-01T04:44:15;35.97;;;33.88;;
33644;SDS011;19986;48.190;16.366;2023-08-01T04:46:41;35.55;;;33.65;;
33644;SDS011;19986;48.190;16.366;2023-08-01T04:49:07;35.53;;;33.42;;
33644;SDS011;19986;48.190;16.366;2023-08-01T04:51:33;36.45;;;33.85;;
33644;SDS011;19986;48.190;16.366;2023-08-01T04:53:58;36.42;;;34.40;;
33644;SDS011;19986;48.190;16.366;2023-08-01T04:56:24;35.70;;;33.58;;
33644;SDS011;19986;48.190;16.366;2023-08-01T04:58:50;36.10;;;33.90;;
33644;SDS011;19986;48.190;16.366;2023-08-01T05:01:16;37.28;;;34.97;;
33644;SDS011;19986;48.190;16.366;2023-08-01T05:03:41;33.00;;;31.20;;
33644;SDS011;19986;48.190;16.366;2023-08-01T05:06:07;34.35;;;32.33;;
33644;SDS011;19986;48.190;16.366;2023-08-01T05:08:33;36.50;;;34.17;;
33644;SDS011;19986;48.190;16.366;2023-08-01T05:10:59;37.75;;;35.30;;
33644;SDS011;19986;48.190;16.366;2023-08-01T05:13:25;36.90;;;34.60;;
33644;SDS011;19986;48.190;16.366;2023-08-01T05:15:51;36.58;;;34.33;;
33644;SDS011;19986;48.190;16.366;2023-08-01T05:18:17;37.58;;;35.35;;
33644;SDS011;19986;48.190;16.366;2023-08-01T05:20:43;37.92;;;35.15;;
33644;SDS011;19986;48.190;16.366;2023-08-01T05:23:09;35.50;;;32.55;;
33644;SDS011;19986;48.190;16.366;2023-08-01T05:25:35;37.20;;;34.67;;
33644;SDS011;19986;48.190;16.366;2023-08-01T05:28:01;36.80;;;34.28;;
33644;SDS011;19986;48.190;16.366;2023-08-01T05:30:27;36.67;;;33.80;;
33644;SDS011;19986;48.190;16.366;2023-08-01T05:32:54;35.30;;;33.13;;
33644;SDS011;19986;48.190;16.366;2023-08-01T05:35:20;36.03;;;33.95;;
33644;SDS011;19986;48.190;16.366;2023-08-01T05:37:46;133.52;;;38.70;;
33644;SDS011;19986;48.190;16.366;2023-08-01T05:40:12;35.88;;;33.55;;
33644;SDS011;19986;48.190;16.366;2023-08-01T05:42:38;38.08;;;34.85;;
33644;SDS011;19986;48.190;16.366;2023-08-01T05:45:04;36.40;;;34.20;;
33644;SDS011;19986;48.190;16.366;2023-08-01T05:47:30;38.75;;;36.00;;
33644;SDS011;19986;48.190;16.366;2023-08-01T05:49:59;38.78;;;36.15;;
33644;SDS011;19986;48.190;16.366;2023-08-01T05:52:25;34.97;;;32.85;;
33644;SDS011;19986;48.190;16.366;2023-08-01T05:54:51;37.67;;;35.42;;
33644;SDS011;19986;48.190;16.366;2023-08-01T05:57:17;37.15;;;34.75;;
33644;SDS011;19986;48.190;16.366;2023-08-01T05:59:43;37.75;;;35.38;;
33644;SDS011;19986;48.190;16.366;2023-08-01T06:02:09;37.70;;;35.47;;
33644;SDS011;19986;48.190;16.366;2023-08-01T06:04:35;37.28;;;34.97;;
33644;SDS011;19986;48.190;16.366;2023-08-01T06:07:01;37.13;;;34.58;;
33644;SDS011;19986;48.190;16.366;2023-08-01T06:09:27;34.05;;;31.85;;
33644;SDS011;19986;48.190;16.366;2023-08-01T06:11:53;37.78;;;35.45;;
33644;SDS011;19986;48.190;16.366;2023-08-01T06:14:18;37.35;;;35.15;;
33644;SDS011;19986;48.190;16.366;2023-08-01T06:16:44;37.30;;;35.10;;
33644;SDS011;19986;48.190;16.366;2023-08-01T06:19:10;39.47;;;36.00;;
33644;SDS011;19986;48.190;16.366;2023-08-01T06:21:36;36.67;;;34.45;;
33644;SDS011;19986;48.190;16.366;2023-08-01T06:24:02;36.75;;;34.25;;
33644;SDS011;19986;48.190;16.366;2023-08-01T06:26:28;37.25;;;34.78;;
33644;SDS011;19986;48.190;16.366;2023-08-01T06:28:54;36.20;;;34.15;;
33644;SDS011;19986;48.190;16.366;2023-08-01T06:31:20;35.78;;;33.85;;
33644;SDS011;19986;48.190;16.366;2023-08-01T06:33:47;37.55;;;35.38;;
33644;SDS011;19986;48.190;16.366;2023-08-01T06:36:13;36.33;;;34.10;;
33644;SDS011;19986;48.190;16.366;2023-08-01T06:38:39;36.17;;;34.03;;
33644;SDS011;19986;48.190;16.366;2023-08-01T06:41:05;35.42;;;33.25;;
33644;SDS011;19986;48.190;16.366;2023-08-01T06:43:31;36.40;;;33.80;;
33644;SDS011;19986;48.190;16.366;2023-08-01T06:45:57;36.30;;;33.88;;
33644;SDS011;19986;48.190;16.366;2023-08-01T06:48:23;37.25;;;34.67;;
33644;SDS011;19986;48.190;16.366;2023-08-01T06:50:48;37.13;;;34.65;;
33644;SDS011;19986;48.190;16.366;2023-08-01T06:53:14;36.60;;;34.30;;
33644;SDS011;19986;48.190;16.366;2023-08-01T06:55:40;37.72;;;35.08;;
33644;SDS011;19986;48.190;16.366;2023-08-01T06:58:21;38.20;;;35.80;;
33644;SDS011;19986;48.190;16.366;2023-08-01T07:00:47;35.83;;;33.50;;
33644;SDS011;19986;48.190;16.366;2023-08-01T07:03:12;36.90;;;34.25;;
33644;SDS011;19986;48.190;16.366;2023-08-01T07:05:38;36.90;;;34.58;;
33644;SDS011;19986;48.190;16.366;2023-08-01T07:08:04;37.83;;;34.90;;
33644;SDS011;19986;48.190;16.366;2023-08-01T07:10:30;38.15;;;35.03;;
33644;SDS011;19986;48.190;16.366;2023-08-01T07:13:00;35.80;;;32.97;;
33644;SDS011;19986;48.190;16.366;2023-08-01T07:15:32;37.58;;;34.70;;
33644;SDS011;19986;48.190;16.366;2023-08-01T07:17:58;36.22;;;33.15;;
33644;SDS011;19986;48.190;16.366;2023-08-01T07:20:25;36.53;;;33.88;;
33644;SDS011;19986;48.190;16.366;2023-08-01T07:22:50;35.88;;;33.47;;
33644;SDS011;19986;48.190;16.366;2023-08-01T07:25:16;36.65;;;34.30;;
33644;SDS011;19986;48.190;16.366;2023-08-01T07:27:44;37.92;;;35.10;;
33644;SDS011;19986;48.190;16.366;2023-08-01T07:30:10;36.38;;;33.67;;
33644;SDS011;19986;48.190;16.366;2023-08-01T07:32:37;37.08;;;34.47;;
33644;SDS011;19986;48.190;16.366;2023-08-01T07:35:06;38.65;;;35.75;;
33644;SDS011;19986;48.190;16.366;2023-08-01T07:37:33;38.95;;;36.10;;
33644;SDS011;19986;48.190;16.366;2023-08-01T07:39:59;37.92;;;35.42;;
33644;SDS011;19986;48.190;16.366;2023-08-01T07:42:25;38.42;;;35.00;;
33644;SDS011;19986;48.190;16.366;2023-08-01T07:44:51;37.45;;;34.75;;
33644;SDS011;19986;48.190;16.366;2023-08-01T07:47:17;38.17;;;35.88;;
33644;SDS011;19986;48.190;16.366;2023-08-01T07:49:43;37.67;;;35.13;;
33644;SDS011;19986;48.190;16.366;2023-08-01T07:52:09;38.08;;;35.22;;
33644;SDS011;19986;48.190;16.366;2023-08-01T07:54:35;36.13;;;33.63;;
33644;SDS011;19986;48.190;16.366;2023-08-01T07:57:01;36.90;;;34.42;;
33644;SDS011;19986;48.190;16.366;2023-08-01T07:59:27;37.78;;;34.75;;
33644;SDS011;19986;48.190;16.366;2023-08-01T08:01:54;36.45;;;34.08;;
33644;SDS011;19986;48.190;16.366;2023-08-01T08:04:20;38.28;;;35.92;;
33644;SDS011;19986;48.190;16.366;2023-08-01T08:06:46;38.38;;;36.17;;
33644;SDS011;19986;48.190;16.366;2023-08-01T08:09:12;36.33;;;33.60;;
33644;SDS011;19986;48.190;16.366;2023-08-01T08:11:38;37.40;;;35.10;;
33644;SDS011;19986;48.190;16.366;2023-08-01T08:14:04;37.20;;;34.80;;
33644;SDS011;19986;48.190;16.366;2023-08-01T08:16:30;38.30;;;35.63;;
33644;SDS011;19986;48.190;16.366;2023-08-01T08:18:56;38.72;;;36.28;;
33644;SDS011;19986;48.190;16.366;2023-08-01T08:21:22;37.85;;;35.30;;
33644;SDS011;19986;48.190;16.366;2023-08-01T08:23:48;38.20;;;35.88;;
33644;SDS011;19986;48.190;16.366;2023-08-01T08:26:13;38.83;;;36.28;;
33644;SDS011;19986;48.190;16.366;2023-08-01T08:28:39;37.53;;;34.97;;
33644;SDS011;19986;48.190;16.366;2023-08-01T08:31:09;37.10;;;34.75;;
33644;SDS011;19986;48.190;16.366;2023-08-01T08:33:35;36.92;;;34.75;;
33644;SDS011;19986;48.190;16.366;2023-08-01T08:36:01;38.55;;;35.88;;
33644;SDS011;19986;48.190;16.366;2023-08-01T08:38:27;37.80;;;34.28;;
33644;SDS011;19986;48.190;16.366;2023-08-01T08:43:39;38.40;;;35.60;;
33644;SDS011;19986;48.190;16.366;2023-08-01T08:46:08;37.85;;;34.53;;
33644;SDS011;19986;48.190;16.366;2023-08-01T08:48:34;37.15;;;34.80;;
33644;SDS011;19986;48.190;16.366;2023-08-01T08:51:02;36.92;;;34.20;;
33644;SDS011;19986;48.190;16.366;2023-08-01T08:53:29;35.15;;;33.03;;
33644;SDS011;19986;48.190;16.366;2023-08-01T08:55:56;36.60;;;33.83;;
33644;SDS011;19986;48.190;16.366;2023-08-01T08:58:23;35.65;;;33.53;;
33644;SDS011;19986;48.190;16.366;2023-08-01T09:00:49;35.25;;;33.13;;
33644;SDS011;19986;48.190;16.366;2023-08-01T09:03:15;35.03;;;32.92;;
33644;SDS011;19986;48.190;16.366;2023-08-01T09:05:44;36.63;;;33.78;;
33644;SDS011;19986;48.190;16.366;2023-08-01T09:08:19;38.10;;;34.75;;
33644;SDS011;19986;48.190;16.366;2023-08-01T09:10:47;37.92;;;34.88;;
33644;SDS011;19986;48.190;16.366;2023-08-01T09:13:13;36.85;;;33.75;;
33644;SDS011;19986;48.190;16.366;2023-08-01T09:15:39;36.47;;;34.03;;
33644;SDS011;19986;48.190;16.366;2023-08-01T09:18:08;36.35;;;33.78;;
33644;SDS011;19986;48.190;16.366;2023-08-01T09:20:41;33.97;;;32.03;;
33644;SDS011;19986;48.190;16.366;2023-08-01T09:23:10;36.22;;;33.90;;
33644;SDS011;19986;48.190;16.366;2023-08-01T09:25:36;35.83;;;33.67;;
33644;SDS011;19986;48.190;16.366;2023-08-01T09:28:02;34.50;;;32.35;;
33644;SDS011;19986;48.190;16.366;2023-08-01T09:30:28;34.50;;;32.53;;
33644;SDS011;19986;48.190;16.366;2023-08-01T09:32:54;34.67;;;32.35;;
33644;SDS011;19986;48.190;16.366;2023-08-01T09:35:21;34.35;;;31.92;;
33644;SDS011;19986;48.190;16.366;2023-08-01T09:37:47;34.70;;;32.15;;
33644;SDS011;19986;48.190;16.366;2023-08-01T09:40:14;36.22;;;33.58;;
33644;SDS011;19986;48.190;16.366;2023-08-01T09:42:41;35.25;;;32.90;;
33644;SDS011;19986;48.190;16.366;2023-08-01T09:47:44;32.97;;;30.88;;
33644;SDS011;19986;48.190;16.366;2023-08-01T09:50:11;35.88;;;33.17;;
33644;SDS011;19986;48.190;16.366;2023-08-01T09:52:45;35.42;;;33.00;;
33644;SDS011;19986;48.190;16.366;2023-08-01T09:55:18;36.53;;;34.00;;
33644;SDS011;19986;48.190;16.366;2023-08-01T09:57:51;35.75;;;33.55;;
33644;SDS011;19986;48.190;16.366;2023-08-01T10:00:21;37.00;;;34.50;;
33644;SDS011;19986;48.190;16.366;2023-08-01T10:02:47;34.60;;;32.60;;
33644;SDS011;19986;48.190;16.366;2023-08-01T10:05:16;34.35;;;32.25;;
33644;SDS011;19986;48.190;16.366;2023-08-01T10:07:44;36.83;;;34.50;;
33644;SDS011;19986;48.190;16.366;2023-08-01T10:10:12;33.75;;;31.75;;
33644;SDS011;19986;48.190;16.366;2023-08-01T10:12:39;35.15;;;33.33;;
33644;SDS011;19986;48.190;16.366;2023-08-01T10:15:10;35.42;;;33.42;;
33644;SDS011;19986;48.190;16.366;2023-08-01T10:17:37;35.38;;;33.03;;
33644;SDS011;19986;48.190;16.366;2023-08-01T10:20:03;35.05;;;33.08;;
33644;SDS011;19986;48.190;16.366;2023-08-01T10:22:30;35.63;;;33.30;;
33644;SDS011;19986;48.190;16.366;2023-08-01T10:24:57;34.58;;;32.78;;
33644;SDS011;19986;48.190;16.366;2023-08-01T10:27:23;36.38;;;33.83;;
33644;SDS011;19986;48.190;16.366;2023-08-01T10:29:56;35.33;;;33.45;;
33644;SDS011;19986;48.190;16.366;2023-08-01T10:32:30;34.83;;;32.63;;
33644;SDS011;19986;48.190;16.366;2023-08-01T10:34:58;34.53;;;32.53;;
33644;SDS011;19986;48.190;16.366;2023-08-01T10:37:24;36.47;;;34.25;;
33644;SDS011;19986;48.190;16.366;2023-08-01T10:39:59;35.58;;;33.42;;
33644;SDS011;19986;48.190;16.366;2023-08-01T10:42:25;35.80;;;33.72;;
33644;SDS011;19986;48.190;16.366;2023-08-01T10:45:02;34.80;;;32.60;;
33644;SDS011;19986;48.190;16.366;2023-08-01T10:47:28;35.63;;;33.53;;
33644;SDS011;19986;48.190;16.366;2023-08-01T10:49:54;36.20;;;34.17;;
33644;SDS011;19986;48.190;16.366;2023-08-01T10:52:20;35.05;;;33.08;;
33644;SDS011;19986;48.190;16.366;2023-08-01T10:54:59;35.78;;;33.97;;
33644;SDS011;19986;48.190;16.366;2023-08-01T10:57:31;36.95;;;34.85;;
33644;SDS011;19986;48.190;16.366;2023-08-01T11:00:11;33.90;;;32.00;;
33644;SDS011;19986;48.190;16.366;2023-08-01T11:02:48;36.40;;;34.15;;
33644;SDS011;19986;48.190;16.366;2023-08-01T11:05:14;38.42;;;36.05;;
33644;SDS011;19986;48.190;16.366;2023-08-01T11:07:40;38.30;;;35.90;;
33644;SDS011;19986;48.190;16.366;2023-08-01T11:10:07;38.10;;;35.72;;
33644;SDS011;19986;48.190;16.366;2023-08-01T11:12:35;40.90;;;38.22;;
33644;SDS011;19986;48.190;16.366;2023-08-01T11:15:03;39.17;;;36.80;;
33644;SDS011;19986;48.190;16.366;2023-08-01T11:17:37;38.25;;;35.75;;
33644;SDS011;19986;48.190;16.366;2023-08-01T11:20:04;36.00;;;33.92;;
33644;SDS011;19986;48.190;16.366;2023-08-01T11:22:34;37.47;;;35.22;;
33644;SDS011;19986;48.190;16.366;2023-08-01T11:25:01;38.83;;;36.08;;
33644;SDS011;19986;48.190;16.366;2023-08-01T11:27:28;38.63;;;36.03;;
33644;SDS011;19986;48.190;16.366;2023-08-01T11:29:54;38.45;;;36.10;;
33644;SDS011;19986;48.190;16.366;2023-08-01T11:32:20;37.75;;;35.55;;
33644;SDS011;19986;48.190;16.366;2023-08-01T11:34:48;39.83;;;37.30;;
33644;SDS011;19986;48.190;16.366;2023-08-01T11:37:15;37.88;;;35.58;;
33644;SDS011;19986;48.190;16.366;2023-08-01T11:39:43;39.03;;;36.30;;
33644;SDS011;19986;48.190;16.366;2023-08-01T11:42:15;37.60;;;35.13;;
33644;SDS011;19986;48.190;16.366;2023-08-01T11:44:42;39.95;;;37.45;;
33644;SDS011;19986;48.190;16.366;2023-08-01T11:47:15;40.08;;;37.38;;
33644;SDS011;19986;48.190;16.366;2023-08-01T11:49:48;40.03;;;37.42;;
33644;SDS011;19986;48.190;16.366;2023-08-01T11:52:24;38.47;;;36.00;;
33644;SDS011;19986;48.190;16.366;2023-08-01T11:54:51;36.90;;;34.58;;
33644;SDS011;19986;48.190;16.366;2023-08-01T11:57:20;37.05;;;34.95;;
33644;SDS011;19986;48.190;16.366;2023-08-01T11:59:50;33.63;;;31.63;;
33644;SDS011;19986;48.190;16.366;2023-08-01T12:02:24;36.13;;;34.20;;
33644;SDS011;19986;48.190;16.366;2023-08-01T12:04:51;36.65;;;34.38;;
33644;SDS011;19986;48.190;16.366;2023-08-01T12:07:18;37.05;;;35.03;;
33644;SDS011;19986;48.190;16.366;2023-08-01T12:09:46;36.00;;;33.95;;
33644;SDS011;19986;48.190;16.366;2023-08-01T12:12:21;36.42;;;34.20;;
33644;SDS011;19986;48.190;16.366;2023-08-01T12:14:47;37.65;;;35.33;;
33644;SDS011;19986;48.190;16.366;2023-08-01T12:17:12;36.35;;;34.45;;
33644;SDS011;19986;48.190;16.366;2023-08-01T12:19:39;36.50;;;34.42;;
33644;SDS011;19986;48.190;16.366;2023-08-01T12:22:05;36.42;;;34.35;;
33644;SDS011;19986;48.190;16.366;2023-08-01T12:24:31;36.50;;;34.40;;
33644;SDS011;19986;48.190;16.366;2023-08-01T12:26:58;37.22;;;34.88;;
33644;SDS011;19986;48.190;16.366;2023-08-01T12:29:24;38.20;;;35.80;;
33644;SDS011;19986;48.190;16.366;2023-08-01T12:31:50;36.25;;;33.85;;
33644;SDS011;19986;48.190;16.366;2023-08-01T12:34:16;37.55;;;35.22;;
33644;SDS011;19986;48.190;16.366;2023-08-01T12:36:42;37.97;;;35.75;;
33644;SDS011;19986;48.190;16.366;2023-08-01T12:39:08;36.90;;;34.70;;
33644;SDS011;19986;48.190;16.366;2023-08-01T12:41:36;40.65;;;38.20;;
33644;SDS011;19986;48.190;16.366;2023-08-01T12:44:03;37.15;;;34.95;;
33644;SDS011;19986;48.190;16.366;2023-08-01T12:46:29;37.28;;;34.97;;
33644;SDS011;19986;48.190;16.366;2023-08-01T12:48:55;37.78;;;35.47;;
33644;SDS011;19986;48.190;16.366;2023-08-01T12:51:21;36.72;;;34.40;;
33644;SDS011;19986;48.190;16.366;2023-08-01T12:53:47;38.40;;;35.83;;
33644;SDS011;19986;48.190;16.366;2023-08-01T12:56:13;38.33;;;36.03;;
33644;SDS011;19986;48.190;16.366;2023-08-01T12:58:54;36.17;;;34.08;;
33644;SDS011;19986;48.190;16.366;2023-08-01T13:01:21;37.22;;;34.95;;
33644;SDS011;19986;48.190;16.366;2023-08-01T13:03:48;37.08;;;34.58;;
33644;SDS011;19986;48.190;16.366;2023-08-01T13:06:13;37.08;;;34.97;;
33644;SDS011;19986;48.190;16.366;2023-08-01T13:08:39;36.22;;;34.13;;
33644;SDS011;19986;48.190;16.366;2023-08-01T13:11:12;36.03;;;34.13;;
33644;SDS011;19986;48.190;16.366;2023-08-01T13:13:39;37.20;;;34.85;;
33644;SDS011;19986;48.190;16.366;2023-08-01T13:16:05;35.03;;;33.03;;
33644;SDS011;19986;48.190;16.366;2023-08-01T13:18:32;36.03;;;33.92;;
33644;SDS011;19986;48.190;16.366;2023-08-01T13:20:58;39.17;;;36.60;;
33644;SDS011;19986;48.190;16.366;2023-08-01T13:23:25;37.30;;;34.90;;
33644;SDS011;19986;48.190;16.366;2023-08-01T13:25:51;36.40;;;34.25;;
33644;SDS011;19986;48.190;16.366;2023-08-01T13:28:17;37.00;;;34.92;;
33644;SDS011;19986;48.190;16.366;2023-08-01T13:30:43;38.78;;;36.20;;
33644;SDS011;19986;48.190;16.366;2023-08-01T13:33:09;37.38;;;35.17;;
33644;SDS011;19986;48.190;16.366;2023-08-01T13:35:34;36.50;;;34.50;;
33644;SDS011;19986;48.190;16.366;2023-08-01T13:38:00;38.38;;;36.17;;
33644;SDS011;19986;48.190;16.366;2023-08-01T13:40:27;37.47;;;35.35;;
33644;SDS011;19986;48.190;16.366;2023-08-01T13:42:53;40.00;;;37.47;;
33644;SDS011;19986;48.190;16.366;2023-08-01T13:45:19;39.35;;;36.95;;
33644;SDS011;19986;48.190;16.366;2023-08-01T13:47:44;39.00;;;36.58;;
33644;SDS011;19986;48.190;16.366;2023-08-01T13:50:10;38.80;;;36.47;;
33644;SDS011;19986;48.190;16.366;2023-08-01T13:52:36;39.75;;;37.42;;
33644;SDS011;19986;48.190;16.366;2023-08-01T13:55:03;37.38;;;35.15;;
33644;SDS011;19986;48.190;16.366;2023-08-01T13:57:30;40.00;;;37.63;;
33644;SDS011;19986;48.190;16.366;2023-08-01T13:59:56;38.95;;;36.65;;
33644;SDS011;19986;48.190;16.366;2023-08-01T14:02:22;41.20;;;38.53;;
33644;SDS011;19986;48.190;16.366;2023-08-01T14:04:50;40.40;;;37.90;;
33644;SDS011;19986;48.190;16.366;2023-08-01T14:07:17;38.55;;;36.08;;
33644;SDS011;19986;48.190;16.366;2023-08-01T14:09:43;40.83;;;38.42;;
33644;SDS011;19986;48.190;16.366;2023-08-01T14:12:09;40.40;;;37.90;;
33644;SDS011;19986;48.190;16.366;2023-08-01T14:14:35;38.47;;;36.15;;
33644;SDS011;19986;48.190;16.366;2023-08-01T14:17:01;39.30;;;36.70;;
33644;SDS011;19986;48.190;16.366;2023-08-01T14:19:27;40.70;;;37.92;;
33644;SDS011;19986;48.190;16.366;2023-08-01T14:21:55;39.58;;;37.17;;
33644;SDS011;19986;48.190;16.366;2023-08-01T14:24:22;41.78;;;39.28;;
33644;SDS011;19986;48.190;16.366;2023-08-01T14:26:48;40.47;;;38.15;;
33644;SDS011;19986;48.190;16.366;2023-08-01T14:29:16;39.13;;;36.58;;
33644;SDS011;19986;48.190;16.366;2023-08-01T14:31:47;39.17;;;36.58;;
33644;SDS011;19986;48.190;16.366;2023-08-01T14:34:16;39.60;;;37.10;;
33644;SDS011;19986;48.190;16.366;2023-08-01T14:36:42;40.65;;;38.30;;
33644;SDS011;19986;48.190;16.366;2023-08-01T14:39:08;39.42;;;37.08;;
33644;SDS011;19986;48.190;16.366;2023-08-01T14:41:33;39.30;;;36.90;;
33644;SDS011;19986;48.190;16.366;2023-08-01T14:43:59;37.15;;;35.00;;
33644;SDS011;19986;48.190;16.366;2023-08-01T14:46:25;40.03;;;37.75;;
33644;SDS011;19986;48.190;16.366;2023-08-01T14:48:51;39.65;;;37.13;;
33644;SDS011;19986;48.190;16.366;2023-08-01T14:51:17;37.60;;;35.33;;
33644;SDS011;19986;48.190;16.366;2023-08-01T14:53:43;39.90;;;37.60;;
33644;SDS011;19986;48.190;16.366;2023-08-01T14:56:08;36.33;;;34.15;;
33644;SDS011;19986;48.190;16.366;2023-08-01T14:58:36;39.42;;;37.03;;
33644;SDS011;19986;48.190;16.366;2023-08-01T15:01:05;38.40;;;36.17;;
33644;SDS011;19986;48.190;16.366;2023-08-01T15:03:36;38.08;;;35.78;;
33644;SDS011;19986;48.190;16.366;2023-08-01T15:06:06;36.60;;;34.50;;
33644;SDS011;19986;48.190;16.366;2023-08-01T15:08:34;34.38;;;32.28;;
33644;SDS011;19986;48.190;16.366;2023-08-01T15:11:04;37.10;;;34.88;;
33644;SDS011;19986;48.190;16.366;2023-08-01T15:13:30;37.08;;;34.88;;
33644;SDS011;19986;48.190;16.366;2023-08-01T15:15:56;38.38;;;36.08;;
33644;SDS011;19986;48.190;16.366;2023-08-01T15:18:23;37.75;;;35.45;;
33644;SDS011;19986;48.190;16.366;2023-08-01T15:20:48;35.55;;;33.47;;
33644;SDS011;19986;48.190;16.366;2023-08-01T15:23:14;38.22;;;35.75;;
33644;SDS011;19986;48.190;16.366;2023-08-01T15:25:40;36.97;;;34.97;;
33644;SDS011;19986;48.190;16.366;2023-08-01T15:28:06;37.45;;;35.35;;
33644;SDS011;19986;48.190;16.366;2023-08-01T15:30:32;39.63;;;37.20;;
33644;SDS011;19986;48.190;16.366;2023-08-01T15:32:58;37.17;;;34.95;;
33644;SDS011;19986;48.190;16.366;2023-08-01T15:35:30;37.03;;;34.92;;
33644;SDS011;19986;48.190;16.366;2023-08-01T15:37:56;38.00;;;35.90;;
33644;SDS011;19986;48.190;16.366;2023-08-01T15:40:22;37.22;;;35.15;;
33644;SDS011;19986;48.190;16.366;2023-08-01T15:42:48;40.40;;;38.05;;
33644;SDS011;19986;48.190;16.366;2023-08-01T15:45:14;38.58;;;36.33;;
33644;SDS011;19986;48.190;16.366;2023-08-01T15:47:40;41.38;;;38.92;;
33644;SDS011;19986;48.190;16.366;2023-08-01T15:50:06;39.88;;;37.60;;
33644;SDS011;19986;48.190;16.366;2023-08-01T15:52:32;39.13;;;36.80;;
33644;SDS011;19986;48.190;16.366;2023-08-01T15:54:59;38.75;;;36.55;;
33644;SDS011;19986;48.190;16.366;2023-08-01T15:57:25;39.47;;;37.17;;
33644;SDS011;19986;48.190;16.366;2023-08-01T15:59:51;37.78;;;35.60;;
33644;SDS011;19986;48.190;16.366;2023-08-01T16:02:17;39.83;;;37.53;;
33644;SDS011;19986;48.190;16.366;2023-08-01T16:04:43;40.05;;;37.78;;
33644;SDS011;19986;48.190;16.366;2023-08-01T16:07:09;38.35;;;36.35;;
33644;SDS011;19986;48.190;16.366;2023-08-01T16:09:36;39.35;;;37.08;;
33644;SDS011;19986;48.190;16.366;2023-08-01T16:12:02;38.30;;;36.20;;
33644;SDS011;19986;48.190;16.366;2023-08-01T16:14:28;37.78;;;35.67;;
33644;SDS011;19986;48.190;16.366;2023-08-01T16:16:55;37.28;;;35.10;;
33644;SDS011;19986;48.190;16.366;2023-08-01T16:19:22;38.47;;;36.28;;
33644;SDS011;19986;48.190;16.366;2023-08-01T16:21:49;38.08;;;35.90;;
33644;SDS011;19986;48.190;16.366;2023-08-01T16:24:15;37.60;;;35.40;;
33644;SDS011;19986;48.190;16.366;2023-08-01T16:26:41;37.25;;;35.08;;
33644;SDS011;19986;48.190;16.366;2023-08-01T16:29:08;38.88;;;36.67;;
33644;SDS011;19986;48.190;16.366;2023-08-01T16:31:34;36.38;;;34.08;;
33644;SDS011;19986;48.190;16.366;2023-08-01T16:34:01;36.58;;;34.33;;
33644;SDS011;19986;48.190;16.366;2023-08-01T16:36:27;37.53;;;35.42;;
33644;SDS011;19986;48.190;16.366;2023-08-01T16:38:54;39.70;;;37.20;;
33644;SDS011;19986;48.190;16.366;2023-08-01T16:41:20;38.40;;;36.30;;
33644;SDS011;19986;48.190;16.366;2023-08-01T16:43:48;38.88;;;36.55;;
33644;SDS011;19986;48.190;16.366;2023-08-01T16:46:15;38.55;;;36.38;;
33644;SDS011;19986;48.190;16.366;2023-08-01T16:48:42;40.45;;;38.05;;
33644;SDS011;19986;48.190;16.366;2023-08-01T16:51:08;38.80;;;36.60;;
33644;SDS011;19986;48.190;16.366;2023-08-01T16:53:34;36.95;;;34.80;;
33644;SDS011;19986;48.190;16.366;2023-08-01T16:56:01;36.78;;;34.88;;
33644;SDS011;19986;48.190;16.366;2023-08-01T16:58:27;37.65;;;35.58;;
33644;SDS011;19986;48.190;16.366;2023-08-01T17:00:54;38.38;;;36.28;;
33644;SDS011;19986;48.190;16.366;2023-08-01T17:03:20;39.70;;;37.50;;
33644;SDS011;19986;48.190;16.366;2023-08-01T17:05:46;39.40;;;37.10;;
33644;SDS011;19986;48.190;16.366;2023-08-01T17:08:14;40.83;;;38.15;;
33644;SDS011;19986;48.190;16.366;2023-08-01T17:10:41;40.33;;;37.95;;
33644;SDS011;19986;48.190;16.366;2023-08-01T17:13:07;38.10;;;35.90;;
33644;SDS011;19986;48.190;16.366;2023-08-01T17:15:35;39.17;;;36.97;;
33644;SDS011;19986;48.190;16.366;2023-08-01T17:18:02;37.67;;;35.60;;
33644;SDS011;19986;48.190;16.366;2023-08-01T17:20:28;38.13;;;35.63;;
33644;SDS011;19986;48.190;16.366;2023-08-01T17:23:00;36.72;;;34.53;;
33644;SDS011;19986;48.190;16.366;2023-08-01T17:25:30;39.60;;;37.30;;
33644;SDS011;19986;48.190;16.366;2023-08-01T17:27:58;36.90;;;34.95;;
33644;SDS011;19986;48.190;16.366;2023-08-01T17:30:24;39.95;;;37.60;;
33644;SDS011;19986;48.190;16.366;2023-08-01T17:32:50;36.85;;;34.83;;
33644;SDS011;19986;48.190;16.366;2023-08-01T17:35:17;40.22;;;37.95;;
33644;SDS011;19986;48.190;16.366;2023-08-01T17:37:44;39.33;;;37.22;;
33644;SDS011;19986;48.190;16.366;2023-08-01T17:40:11;39.42;;;37.10;;
33644;SDS011;19986;48.190;16.366;2023-08-01T17:42:37;38.53;;;36.40;;
33644;SDS011;19986;48.190;16.366;2023-08-01T17:45:04;36.42;;;34.42;;
33644;SDS011;19986;48.190;16.366;2023-08-01T17:47:34;36.75;;;34.65;;
33644;SDS011;19986;48.190;16.366;2023-08-01T17:50:01;37.72;;;35.45;;
33644;SDS011;19986;48.190;16.366;2023-08-01T17:52:27;37.38;;;35.17;;
33644;SDS011;19986;48.190;16.366;2023-08-01T17:54:54;38.38;;;36.28;;
33644;SDS011;19986;48.190;16.366;2023-08-01T17:57:21;37.72;;;35.63;;
33644;SDS011;19986;48.190;16.366;2023-08-01T17:59:47;37.90;;;35.80;;
33644;SDS011;19986;48.190;16.366;2023-08-01T18:02:14;39.13;;;36.83;;
33644;SDS011;19986;48.190;16.366;2023-08-01T18:04:42;39.03;;;36.80;;
33644;SDS011;19986;48.190;16.366;2023-08-01T18:07:11;38.15;;;36.10;;
33644;SDS011;19986;48.190;16.366;2023-08-01T18:09:38;37.83;;;35.83;;
33644;SDS011;19986;48.190;16.366;2023-08-01T18:12:06;37.75;;;35.65;;
33644;SDS011;19986;48.190;16.366;2023-08-01T18:14:33;39.63;;;37.47;;
33644;SDS011;19986;48.190;16.366;2023-08-01T18:17:00;39.72;;;37.53;;
33644;SDS011;19986;48.190;16.366;2023-08-01T18:19:27;40.03;;;37.83;;
33644;SDS011;19986;48.190;16.366;2023-08-01T18:21:55;41.55;;;39.15;;
33644;SDS011;19986;48.190;16.366;2023-08-01T18:24:21;38.60;;;36.58;;
33644;SDS011;19986;48.190;16.366;2023-08-01T18:26:48;39.10;;;36.90;;
33644;SDS011;19986;48.190;16.366;2023-08-01T18:29:15;39.10;;;36.97;;
33644;SDS011;19986;48.190;16.366;2023-08-01T18:31:41;39.78;;;37.60;;